createdAt,value
2022-10-17T00:02:08.083Z,98664.16
2022-10-17T00:04:41.897Z,98659.00
2022-10-17T00:07:15.207Z,98662.08
2022-10-17T00:09:48.783Z,98665.36
2022-10-17T00:12:22.809Z,98665.36
2022-10-17T00:14:56.136Z,98665.88
2022-10-17T00:17:30.963Z,98670.05
2022-10-17T00:20:05.315Z,98671.05
2022-10-17T00:22:38.849Z,98670.37
2022-10-17T00:25:14.168Z,98667.73
2022-10-17T00:27:50.572Z,98669.09
2022-10-17T00:30:25.699Z,98672.36
2022-10-17T00:32:59.922Z,98672.85
2022-10-17T00:35:33.797Z,98673.83
2022-10-17T00:38:05.860Z,98673.48
2022-10-17T00:40:39.012Z,98674.55
2022-10-17T00:43:18.662Z,98673.61
2022-10-17T00:45:51.712Z,98676.02
2022-10-17T00:48:27.384Z,98674.56
2022-10-17T00:51:00.836Z,98672.64
2022-10-17T00:53:43.427Z,98672.79
2022-10-17T00:56:25.562Z,98674.40
2022-10-17T00:59:02.171Z,98671.34
2022-10-17T01:01:36.059Z,98677.59
2022-10-17T01:04:09.996Z,98678.27
2022-10-17T01:06:45.970Z,98679.63
2022-10-17T01:09:20.400Z,98676.48
2022-10-17T01:11:59.333Z,98676.65
2022-10-17T01:14:42.286Z,98680.52
2022-10-17T01:17:23.515Z,98677.24
2022-10-17T01:20:37.736Z,98681.61
2022-10-17T01:23:29.434Z,98679.90
2022-10-17T01:26:16.433Z,98682.86
2022-10-17T01:29:15.767Z,98679.13
2022-10-17T01:31:55.276Z,98677.44
2022-10-17T01:34:36.616Z,98677.43
2022-10-17T01:37:18.811Z,98679.81
2022-10-17T01:39:57.333Z,98679.10
2022-10-17T01:42:37.825Z,98681.48
2022-10-17T01:45:15.932Z,98677.14
2022-10-17T01:48:00.969Z,98676.27
2022-10-17T01:50:39.190Z,98681.45
2022-10-17T01:53:17.171Z,98680.77
2022-10-17T01:58:34.933Z,98682.48
2022-10-17T02:01:14.147Z,98677.46
2022-10-17T02:03:50.766Z,98679.20
2022-10-17T02:06:24.956Z,98673.64
2022-10-17T02:08:59.559Z,98678.48
2022-10-17T02:11:33.034Z,98682.46
2022-10-17T02:14:25.812Z,98677.44
2022-10-17T02:17:09.710Z,98680.73
2022-10-17T02:20:07.669Z,98684.20
2022-10-17T02:22:46.359Z,98681.96
2022-10-17T02:25:32.180Z,98679.01
2022-10-17T02:28:18.843Z,98687.16
2022-10-17T02:30:57.341Z,98682.66
2022-10-17T02:33:35.197Z,98684.23
2022-10-17T02:36:14.527Z,98678.34
2022-10-17T02:38:49.463Z,98678.86
2022-10-17T02:41:25.192Z,98684.60
2022-10-17T02:44:02.376Z,98683.75
2022-10-17T02:46:39.424Z,98681.21
2022-10-17T02:49:19.839Z,98686.42
2022-10-17T02:52:00.934Z,98685.59
2022-10-17T02:54:41.707Z,98688.41
2022-10-17T02:57:21.106Z,98687.92
2022-10-17T02:59:56.069Z,98690.05
2022-10-17T03:02:30.442Z,98692.69
2022-10-17T03:05:04.308Z,98701.05
2022-10-17T03:07:37.931Z,98697.11
2022-10-17T03:10:12.386Z,98698.59
2022-10-17T03:12:46.147Z,98703.23
2022-10-17T03:15:17.609Z,98702.39
2022-10-17T03:17:51.132Z,98700.90
2022-10-17T03:20:27.740Z,98708.15
2022-10-17T03:23:00.790Z,98711.44
2022-10-17T03:25:34.648Z,98713.17
2022-10-17T03:28:09.610Z,98717.14
2022-10-17T03:30:43.896Z,98720.76
2022-10-17T03:33:17.650Z,98723.70
2022-10-17T03:35:51.019Z,98723.91
2022-10-17T03:38:24.603Z,98724.50
2022-10-17T03:41:00.933Z,98724.04
2022-10-17T03:43:34.798Z,98727.91
2022-10-17T03:46:09.656Z,98722.55
2022-10-17T03:48:43.803Z,98726.75
2022-10-17T03:51:17.584Z,98721.13
2022-10-17T03:53:56.030Z,98724.30
2022-10-17T03:56:30.220Z,98729.20
2022-10-17T03:59:08.024Z,98734.41
2022-10-17T04:01:43.171Z,98734.73
2022-10-17T04:04:17.265Z,98731.29
2022-10-17T04:06:51.400Z,98734.98
2022-10-17T04:09:25.099Z,98736.32
2022-10-17T04:12:15.035Z,98734.44
2022-10-17T04:14:50.813Z,98737.36
2022-10-17T04:17:24.429Z,98739.05
2022-10-17T04:19:57.591Z,98742.60
2022-10-17T04:22:31.936Z,98739.14
2022-10-17T04:25:05.990Z,98742.64
2022-10-17T04:27:46.746Z,98741.10
2022-10-17T04:30:21.187Z,98740.73
2022-10-17T04:32:57.309Z,98741.92
2022-10-17T04:35:30.960Z,98749.39
2022-10-17T04:38:11.135Z,98752.36
2022-10-17T04:40:45.044Z,98751.70
2022-10-17T04:43:19.444Z,98751.02
2022-10-17T04:45:56.829Z,98759.85
2022-10-17T04:48:30.735Z,98761.95
2022-10-17T04:51:07.961Z,98762.32
2022-10-17T04:53:47.730Z,98767.73
2022-10-17T04:56:24.316Z,98765.13
2022-10-17T04:58:58.402Z,98773.96
2022-10-17T05:01:32.727Z,98775.85
2022-10-17T05:04:09.584Z,98770.16
2022-10-17T05:06:43.283Z,98774.88
2022-10-17T05:09:52.681Z,98774.10
2022-10-17T05:12:25.012Z,98775.16
2022-10-17T05:15:01.882Z,98773.31
2022-10-17T05:17:35.776Z,98772.48
2022-10-17T05:20:08.790Z,98771.13
2022-10-17T05:22:43.333Z,98776.70
2022-10-17T05:25:18.270Z,98775.31
2022-10-17T05:27:52.266Z,98783.57
2022-10-17T05:30:26.053Z,98785.42
2022-10-17T05:33:03.939Z,98783.14
2022-10-17T05:35:39.632Z,98781.35
2022-10-17T05:38:14.533Z,98778.75
2022-10-17T05:40:49.503Z,98782.13
2022-10-17T05:43:23.551Z,98786.22
2022-10-17T05:46:00.073Z,98785.30
2022-10-17T05:48:35.693Z,98783.27
2022-10-17T05:51:13.272Z,98789.66
2022-10-17T05:53:47.926Z,98786.84
2022-10-17T05:56:27.369Z,98789.55
2022-10-17T05:59:01.245Z,98796.84
2022-10-17T06:01:58.492Z,98799.11
2022-10-17T06:04:33.549Z,98801.95
2022-10-17T06:07:09.682Z,98802.25
2022-10-17T06:09:43.392Z,98808.30
2022-10-17T06:12:15.282Z,98809.86
2022-10-17T06:14:51.286Z,98812.48
2022-10-17T06:17:27.973Z,98822.94
2022-10-17T06:20:01.755Z,98826.68
2022-10-17T06:22:35.090Z,98830.95
2022-10-17T06:25:13.519Z,98836.17
2022-10-17T06:27:49.256Z,98834.35
2022-10-17T06:30:24.510Z,98842.90
2022-10-17T06:32:58.973Z,98846.30
2022-10-17T06:35:32.764Z,98850.02
2022-10-17T06:38:07.867Z,98854.14
2022-10-17T06:40:43.108Z,98844.58
2022-10-17T06:43:16.994Z,98850.20
2022-10-17T06:46:14.466Z,98854.71
2022-10-17T06:49:00.718Z,98864.52
2022-10-17T06:51:50.565Z,98867.43
2022-10-17T06:54:27.029Z,98870.40
2022-10-17T06:57:24.578Z,98868.82
2022-10-17T07:00:11.494Z,98871.33
2022-10-17T07:02:52.881Z,98873.70
2022-10-17T07:05:27.258Z,98876.55
2022-10-17T07:08:03.527Z,98870.77
2022-10-17T07:10:39.517Z,98871.22
2022-10-17T07:13:15.034Z,98878.83
2022-10-17T07:15:50.158Z,98885.17
2022-10-17T07:18:24.357Z,98882.84
2022-10-17T07:21:01.470Z,98884.85
2022-10-17T07:23:37.560Z,98885.55
2022-10-17T07:26:14.761Z,98885.45
2022-10-17T07:28:56.536Z,98885.95
2022-10-17T07:31:46.512Z,98890.95
2022-10-17T07:34:20.919Z,98887.14
2022-10-17T07:36:56.208Z,98890.89
2022-10-17T07:39:30.958Z,98885.25
2022-10-17T07:42:05.000Z,98884.38
2022-10-17T07:44:40.217Z,98885.93
2022-10-17T07:47:14.790Z,98888.87
2022-10-17T07:49:48.808Z,98887.86
2022-10-17T07:52:23.333Z,98887.86
2022-10-17T07:54:57.951Z,98890.91
2022-10-17T07:57:34.762Z,98886.20
2022-10-17T08:00:11.612Z,98888.34
2022-10-17T08:02:47.981Z,98887.20
2022-10-17T08:05:20.020Z,98887.67
2022-10-17T08:07:54.165Z,98895.67
2022-10-17T08:10:29.939Z,98893.13
2022-10-17T08:13:04.113Z,98889.19
2022-10-17T08:15:39.625Z,98894.02
2022-10-17T08:18:14.496Z,98895.82
2022-10-17T08:20:49.633Z,98901.64
2022-10-17T08:23:23.919Z,98899.66
2022-10-17T08:26:00.768Z,98903.83
2022-10-17T08:28:36.846Z,98902.80
2022-10-17T08:31:13.745Z,98904.80
2022-10-17T08:33:48.758Z,98905.21
2022-10-17T08:36:24.978Z,98903.98
2022-10-17T08:38:58.770Z,98904.85
2022-10-17T08:41:48.184Z,98902.92
2022-10-17T08:44:36.028Z,98900.00
2022-10-17T08:47:13.996Z,98903.84
2022-10-17T08:49:53.181Z,98900.20
2022-10-17T08:52:38.692Z,98902.14
2022-10-17T08:57:53.621Z,98905.13
2022-10-17T09:00:28.687Z,98907.18
2022-10-17T09:03:15.003Z,98906.44
2022-10-17T09:05:56.184Z,98904.79
2022-10-17T09:08:42.939Z,98907.27
2022-10-17T09:11:35.654Z,98910.04
2022-10-17T09:14:24.439Z,98908.29
2022-10-17T09:17:11.142Z,98907.33
2022-10-17T09:19:51.555Z,98906.09
2022-10-17T09:22:30.642Z,98905.80
2022-10-17T09:25:09.297Z,98904.20
2022-10-17T09:27:47.508Z,98898.48
2022-10-17T09:30:45.227Z,98903.00
2022-10-17T09:33:35.657Z,98905.23
2022-10-17T09:36:19.332Z,98906.61
2022-10-17T09:38:55.672Z,98905.21
2022-10-17T09:41:50.290Z,98911.59
2022-10-17T09:44:26.275Z,98915.71
2022-10-17T09:47:15.319Z,98919.80
2022-10-17T09:49:51.470Z,98923.06
2022-10-17T09:52:29.006Z,98919.38
2022-10-17T09:55:06.714Z,98920.96
2022-10-17T09:57:57.388Z,98919.91
2022-10-17T10:00:32.529Z,98920.04
2022-10-17T10:03:17.028Z,98920.52
2022-10-17T10:06:07.869Z,98922.98
2022-10-17T10:08:50.865Z,98922.90
2022-10-17T10:11:28.161Z,98918.17
2022-10-17T10:14:20.632Z,98919.27
2022-10-17T10:16:55.840Z,98918.95
2022-10-17T10:19:36.276Z,98919.60
2022-10-17T10:22:20.215Z,98918.07
2022-10-17T10:25:09.103Z,98915.66
2022-10-17T10:27:44.694Z,98911.10
2022-10-17T10:30:27.814Z,98912.23
2022-10-17T10:33:02.462Z,98906.78
2022-10-17T10:35:39.099Z,98913.47
2022-10-17T10:38:18.977Z,98909.19
2022-10-17T10:40:55.553Z,98906.61
2022-10-17T10:43:38.411Z,98907.27
2022-10-17T10:46:22.812Z,98905.27
2022-10-17T10:49:00.285Z,98903.55
2022-10-17T10:51:39.746Z,98898.75
2022-10-17T10:54:18.903Z,98899.34
2022-10-17T10:56:56.392Z,98898.17
2022-10-17T10:59:38.246Z,98894.48
2022-10-17T11:02:20.957Z,98898.11
2022-10-17T11:05:01.964Z,98896.35
2022-10-17T11:07:41.043Z,98899.35
2022-10-17T11:10:21.961Z,98897.95
2022-10-17T11:13:02.554Z,98897.61
2022-10-17T11:15:44.258Z,98883.95
2022-10-17T11:18:29.733Z,98883.29
2022-10-17T11:21:12.900Z,98885.75
2022-10-17T11:23:55.772Z,98880.48
2022-10-17T11:26:32.225Z,98885.93
2022-10-17T11:29:08.960Z,98886.60
2022-10-17T11:31:47.666Z,98885.34
2022-10-17T11:34:28.139Z,98885.04
2022-10-17T11:37:08.883Z,98883.17
2022-10-17T11:39:50.344Z,98880.98
2022-10-17T11:42:30.258Z,98880.90
2022-10-17T11:45:10.497Z,98882.38
2022-10-17T11:47:52.051Z,98881.14
2022-10-17T11:53:25.478Z,98878.09
2022-10-17T11:56:03.643Z,98876.73
2022-10-17T11:58:43.965Z,98873.88
2022-10-17T12:01:35.301Z,98877.68
2022-10-17T12:04:21.699Z,98871.38
2022-10-17T12:07:08.481Z,98876.94
2022-10-17T12:09:49.375Z,98879.73
2022-10-17T12:12:32.679Z,98873.68
2022-10-17T12:15:24.124Z,98871.45
2022-10-17T12:18:03.759Z,98872.84
2022-10-17T12:20:39.896Z,98866.86
2022-10-17T12:23:30.667Z,98866.49
2022-10-17T12:26:07.087Z,98864.64
2022-10-17T12:28:46.977Z,98861.17
2022-10-17T12:31:33.942Z,98859.54
2022-10-17T12:34:18.316Z,98858.63
2022-10-17T12:36:51.926Z,98851.25
2022-10-17T12:39:56.997Z,98852.92
2022-10-17T12:42:48.560Z,98849.04
2022-10-17T12:45:49.498Z,98848.04
2022-10-17T12:48:53.362Z,98845.95
2022-10-17T12:51:35.788Z,98847.44
2022-10-17T12:54:15.993Z,98845.63
2022-10-17T12:56:52.139Z,98847.11
2022-10-17T12:59:30.835Z,98846.45
2022-10-17T13:02:06.825Z,98844.98
2022-10-17T13:04:40.868Z,98841.08
2022-10-17T13:07:23.231Z,98845.11
2022-10-17T13:09:57.880Z,98843.05
2022-10-17T13:12:34.046Z,98843.23
2022-10-17T13:15:20.214Z,98839.17
2022-10-17T13:18:07.015Z,98843.88
2022-10-17T13:20:41.503Z,98843.90
2022-10-17T13:23:28.428Z,98842.75
2022-10-17T13:26:15.821Z,98840.75
2022-10-17T13:29:03.037Z,98838.63
2022-10-17T13:31:39.301Z,98840.13
2022-10-17T13:34:23.423Z,98841.81
2022-10-17T13:36:59.028Z,98837.64
2022-10-17T13:39:54.514Z,98841.45
2022-10-17T13:42:33.454Z,98841.87
2022-10-17T13:45:15.691Z,98840.73
2022-10-17T13:47:50.619Z,98840.27
2022-10-17T13:50:44.174Z,98841.13
2022-10-17T13:53:28.243Z,98842.81
2022-10-17T13:56:27.189Z,98846.60
2022-10-17T13:59:10.431Z,98840.84
2022-10-17T14:01:45.507Z,98844.55
2022-10-17T14:04:20.769Z,98840.81
2022-10-17T14:06:54.371Z,98837.98
2022-10-17T14:09:31.537Z,98836.84
2022-10-17T14:12:11.262Z,98837.23
2022-10-17T14:15:09.876Z,98841.74
2022-10-17T14:17:45.585Z,98838.22
2022-10-17T14:23:37.044Z,98836.86
2022-10-17T14:26:14.897Z,98833.21
2022-10-17T14:28:51.161Z,98840.27
2022-10-17T14:31:34.966Z,98840.40
2022-10-17T14:34:09.743Z,98837.13
2022-10-17T14:36:44.969Z,98842.21
2022-10-17T14:39:24.805Z,98842.17
2022-10-17T14:42:04.108Z,98839.41
2022-10-17T14:44:41.254Z,98841.05
2022-10-17T14:47:43.288Z,98841.02
2022-10-17T14:50:28.029Z,98839.83
2022-10-17T14:53:03.103Z,98841.03
2022-10-17T14:55:39.466Z,98839.46
2022-10-17T14:58:31.204Z,98841.64
2022-10-17T15:01:05.696Z,98835.41
2022-10-17T15:03:39.436Z,98833.09
2022-10-17T15:06:23.097Z,98835.80
2022-10-17T15:08:56.484Z,98833.96
2022-10-17T15:11:29.914Z,98837.49
2022-10-17T15:14:03.641Z,98831.60
2022-10-17T15:16:40.060Z,98834.15
2022-10-17T15:19:14.381Z,98832.22
2022-10-17T15:21:48.255Z,98836.80
2022-10-17T15:24:21.906Z,98835.29
2022-10-17T15:26:55.697Z,98834.52
2022-10-17T15:29:29.486Z,98837.00
2022-10-17T15:32:04.246Z,98836.98
2022-10-17T15:34:38.207Z,98836.95
2022-10-17T15:37:21.445Z,98835.18
2022-10-17T15:39:56.128Z,98836.20
2022-10-17T15:42:35.122Z,98836.54
2022-10-17T15:45:10.854Z,98835.68
2022-10-17T15:47:46.625Z,98839.02
2022-10-17T15:50:22.328Z,98839.91
2022-10-17T15:52:57.273Z,98836.45
2022-10-17T15:55:32.221Z,98836.14
2022-10-17T15:58:05.901Z,98835.27
2022-10-17T16:00:39.385Z,98837.84
2022-10-17T16:03:13.495Z,98837.06
2022-10-17T16:05:48.991Z,98844.48
2022-10-17T16:08:22.714Z,98842.77
2022-10-17T16:10:57.764Z,98840.55
2022-10-17T16:13:31.161Z,98844.56
2022-10-17T16:16:03.540Z,98840.21
2022-10-17T16:18:37.125Z,98840.75
2022-10-17T16:21:39.295Z,98839.06
2022-10-17T16:24:41.754Z,98835.09
2022-10-17T16:27:34.142Z,98835.70
2022-10-17T16:30:43.376Z,98835.32
2022-10-17T16:33:54.036Z,98831.71
2022-10-17T16:36:39.302Z,98834.55
2022-10-17T16:39:46.475Z,98831.79
2022-10-17T16:46:06.719Z,98828.05
2022-10-17T16:48:57.489Z,98827.83
2022-10-17T16:58:32.534Z,98826.72
2022-10-17T17:01:32.862Z,98823.16
2022-10-17T17:04:21.101Z,98814.23
2022-10-17T17:06:56.151Z,98822.72
2022-10-17T17:09:38.930Z,98827.13
2022-10-17T17:12:16.123Z,98825.88
2022-10-17T17:14:59.721Z,98825.72
2022-10-17T17:17:48.715Z,98825.82
2022-10-17T17:20:26.056Z,98828.25
2022-10-17T17:22:59.574Z,98828.50
2022-10-17T17:25:35.924Z,98831.33
2022-10-17T17:28:09.607Z,98836.27
2022-10-17T17:30:43.686Z,98834.74
2022-10-17T17:33:17.481Z,98829.35
2022-10-17T17:35:56.937Z,98834.36
2022-10-17T17:38:31.956Z,98836.38
2022-10-17T17:41:06.857Z,98830.59
2022-10-17T17:43:40.587Z,98834.01
2022-10-17T17:46:17.809Z,98827.91
2022-10-17T17:48:54.845Z,98825.52
2022-10-17T17:51:30.781Z,98826.95
2022-10-17T17:54:04.190Z,98826.27
2022-10-17T17:56:38.064Z,98826.42
2022-10-17T17:59:34.777Z,98827.91
2022-10-17T18:02:10.966Z,98829.54
2022-10-17T18:04:45.175Z,98824.82
2022-10-17T18:07:21.416Z,98825.52
2022-10-17T18:09:59.394Z,98827.36
2022-10-17T18:12:35.253Z,98830.36
2022-10-17T18:15:13.208Z,98826.56
2022-10-17T18:17:46.844Z,98835.94
2022-10-17T18:20:20.776Z,98839.30
2022-10-17T18:22:57.356Z,98838.76
2022-10-17T18:25:35.340Z,98832.13
2022-10-17T18:28:10.325Z,98833.27
2022-10-17T18:30:44.259Z,98830.16
2022-10-17T18:33:18.412Z,98825.65
2022-10-17T18:35:58.431Z,98822.33
2022-10-17T18:38:32.703Z,98821.45
2022-10-17T18:41:11.896Z,98820.73
2022-10-17T18:43:49.841Z,98826.02
2022-10-17T18:46:24.663Z,98825.79
2022-10-17T18:48:59.546Z,98822.27
2022-10-17T18:51:33.380Z,98823.52
2022-10-17T18:54:07.532Z,98827.09
2022-10-17T18:56:41.142Z,98825.72
2022-10-17T18:59:13.177Z,98824.80
2022-10-17T19:01:46.455Z,98826.42
2022-10-17T19:04:20.754Z,98819.59
2022-10-17T19:06:54.468Z,98819.13
2022-10-17T19:09:26.288Z,98818.96
2022-10-17T19:12:00.693Z,98815.86
2022-10-17T19:14:34.952Z,98822.89
2022-10-17T19:17:09.189Z,98814.80
2022-10-17T19:19:44.729Z,98811.23
2022-10-17T19:22:23.474Z,98814.84
2022-10-17T19:24:59.937Z,98808.40
2022-10-17T19:27:35.935Z,98809.29
2022-10-17T19:30:11.575Z,98811.31
2022-10-17T19:32:46.573Z,98806.38
2022-10-17T19:35:20.294Z,98810.25
2022-10-17T19:37:54.809Z,98809.80
2022-10-17T19:40:34.819Z,98812.63
2022-10-17T19:43:09.946Z,98813.85
2022-10-17T19:45:44.736Z,98814.00
2022-10-17T19:48:20.331Z,98818.44
2022-10-17T19:50:56.694Z,98819.76
2022-10-17T19:53:31.038Z,98824.73
2022-10-17T19:56:06.243Z,98824.14
2022-10-17T19:58:46.243Z,98822.25
2022-10-17T20:01:25.501Z,98825.19
2022-10-17T20:04:01.256Z,98830.11
2022-10-17T20:06:36.046Z,98829.67
2022-10-17T20:09:17.045Z,98828.17
2022-10-17T20:11:53.202Z,98830.20
2022-10-17T20:14:26.891Z,98834.16
2022-10-17T20:17:00.693Z,98831.23
2022-10-17T20:19:35.157Z,98829.94
2022-10-17T20:22:10.736Z,98830.28
2022-10-17T20:24:44.849Z,98828.33
2022-10-17T20:27:25.454Z,98831.83
2022-10-17T20:30:04.382Z,98825.98
2022-10-17T20:32:40.020Z,98827.59
2022-10-17T20:35:14.373Z,98827.57
2022-10-17T20:37:55.730Z,98822.23
2022-10-17T20:40:35.211Z,98819.37
2022-10-17T20:43:12.519Z,98818.69
2022-10-17T20:45:51.318Z,98813.90
2022-10-17T20:48:26.259Z,98809.96
2022-10-17T20:51:00.082Z,98811.09
2022-10-17T20:53:37.817Z,98815.19
2022-10-17T20:56:15.837Z,98811.08
2022-10-17T20:58:51.592Z,98810.04
2022-10-17T21:01:26.159Z,98810.74
2022-10-17T21:04:15.893Z,98811.08
2022-10-17T21:06:53.938Z,98809.52
2022-10-17T21:09:27.550Z,98807.91
2022-10-17T21:14:41.184Z,98805.36
2022-10-17T21:17:14.985Z,98799.52
2022-10-17T21:19:50.574Z,98797.70
2022-10-17T21:22:24.228Z,98796.39
2022-10-17T21:24:57.645Z,98798.52
2022-10-17T21:27:31.837Z,98794.45
2022-10-17T21:32:55.373Z,98792.50
2022-10-17T21:35:29.031Z,98794.45
2022-10-17T21:38:02.420Z,98795.66
2022-10-17T21:40:35.777Z,98790.06
2022-10-17T21:43:09.481Z,98791.12
2022-10-17T21:45:43.579Z,98785.66
2022-10-17T21:48:16.849Z,98788.14
2022-10-17T21:50:50.720Z,98789.79
2022-10-17T21:53:25.563Z,98792.46
2022-10-17T21:56:00.912Z,98790.63
2022-10-17T21:58:34.666Z,98783.46
2022-10-17T22:01:11.023Z,98784.20
2022-10-17T22:03:47.084Z,98781.59
2022-10-17T22:06:40.542Z,98777.73
2022-10-17T22:09:17.688Z,98784.13
2022-10-17T22:11:53.194Z,98780.70
2022-10-17T22:14:28.158Z,98782.70
2022-10-17T22:17:02.035Z,98778.52
2022-10-17T22:19:35.733Z,98773.27
2022-10-17T22:22:12.125Z,98773.33
2022-10-17T22:24:47.757Z,98771.73
2022-10-17T22:27:21.634Z,98770.22
2022-10-17T22:29:54.808Z,98763.61
2022-10-17T22:32:28.651Z,98759.27
2022-10-17T22:35:01.809Z,98762.66
2022-10-17T22:37:35.700Z,98760.21
2022-10-17T22:40:10.944Z,98758.89
2022-10-17T22:42:44.399Z,98760.04
2022-10-17T22:45:16.232Z,98755.73
2022-10-17T22:47:49.838Z,98761.40
2022-10-17T22:50:24.245Z,98759.44
2022-10-17T22:52:59.704Z,98758.23
2022-10-17T22:55:32.722Z,98759.36
2022-10-17T22:58:06.331Z,98754.41
2022-10-17T23:00:41.429Z,98754.13
2022-10-17T23:03:16.393Z,98752.50
2022-10-17T23:05:49.977Z,98751.40
2022-10-17T23:08:24.005Z,98750.96
2022-10-17T23:10:58.033Z,98750.52
2022-10-17T23:13:32.110Z,98748.46
2022-10-17T23:16:05.871Z,98748.34
2022-10-17T23:18:39.961Z,98752.42
2022-10-17T23:21:13.891Z,98745.50
2022-10-17T23:23:47.346Z,98742.20
2022-10-17T23:26:18.755Z,98739.21
2022-10-17T23:28:55.776Z,98731.67
2022-10-17T23:31:29.528Z,98732.98
2022-10-17T23:34:01.577Z,98732.84
2022-10-17T23:36:34.938Z,98729.36
2022-10-17T23:39:11.427Z,98725.02
2022-10-17T23:41:44.776Z,98722.28
2022-10-17T23:44:21.408Z,98720.58
2022-10-17T23:46:54.848Z,98722.20
2022-10-17T23:49:26.768Z,98719.53
2022-10-17T23:52:00.430Z,98725.09
2022-10-17T23:54:32.383Z,98722.71
2022-10-17T23:57:06.266Z,98718.33
2022-10-17T23:59:40.924Z,98714.36
